Weather observations for the past three days for
Jacksonville, Cherokee County Airport
Imperial (Metric)
Date Time (cdt) Wind (mph) Vis. (mi.) Weather Sky Cond. Temperature (ºF) Relative Humidity Wind Chill (°F) Heat Index (°F) Pressure Precipitation (in)
Air Dwpt 6 hour altimeter (in) sea level (mb) 1 hr 3 hr 6 hr
Max. Min.
09 18:55 S 3 8.00 Fair CLR 84.2 70.2 85.8 79.7 63% 89 29.76 0.0
09 18:35 Calm 8.00 Fair CLR 84.6 69.6 61% 89 29.76 0.0
09 18:15 SW 3 7.00 Fair CLR 84.9 69.3 60% 89 29.75 0.0
09 17:55 Calm 7.00 Fair CLR 85.8 70.2 60% 91 29.75 0.0
09 17:35 Calm 7.00 A Few Clouds FEW040 84.7 70.5 62% 90 29.75 0.0
09 17:15 Calm 8.00 A Few Clouds FEW041 85.1 69.8 60% 90 29.75 0.0
09 16:55 Calm 9.00 Partly Cloudy FEW042 SCT055 84.2 70.7 64% 89 29.76 0.0
09 16:35 Calm 8.00 A Few Clouds FEW047 83.7 70.2 64% 88 29.76 0.0
09 16:15 S 6 7.00 Mostly Cloudy SCT036 BKN049 85.5 71.6 63% 91 29.77 0.0
09 15:55 Vrbl 3 7.00 Mostly Cloudy BKN033 84 73.2 70% 91 29.77 0.0
09 15:35 S 3 8.00 Mostly Cloudy BKN034 82.9 73.2 73% 89 29.78 0.0
09 15:15 Vrbl 6 7.00 A Few Clouds FEW031 84.7 73.4 69% 92 29.78 0.0
09 14:55 Vrbl 3 7.00 Mostly Cloudy SCT028 BKN034 BKN046 82.9 72.9 72% 89 29.79 0.0
09 14:35 S 6 7.00 Mostly Cloudy SCT027 BKN037 82.4 72.7 73% 88 29.8 0.0
09 14:15 S 7 8.00 Mostly Cloudy BKN027 BKN040 82.6 73.8 75% 89 29.8 0.0
09 13:55 Vrbl 6 7.00 Mostly Cloudy FEW023 BKN032 BKN041 80.8 72.7 76% 85 29.81 0.0
09 13:35 S 7 7.00 Overcast FEW023 BKN033 OVC040 81.3 73 76% 86 29.81 0.0
09 13:15 S 8 8.00 Mostly Cloudy FEW021 BKN034 81 73.8 79% 86 29.82 0.0
09 12:55 Vrbl 5 7.00 Mostly Cloudy FEW015 BKN032 79.7 73 79.7 69.1 80% 84 29.82 0.0
09 12:35 SW 6 7.00 Overcast SCT013 OVC033 78.3 73.9 87% 81 29.83 0.0
09 12:15 S 5 8.00 Overcast FEW007 SCT011 BKN019 OVC032 76.8 73.9 91% 78 29.84 0.0
09 11:55 SW 5 7.00 Overcast SCT007 OVC013 74.1 73.8 99% 29.84 0.0
09 11:35 Vrbl 5 8.00 Overcast BKN007 BKN012 OVC020 74.3 73.6 98% 29.84 0.0
09 11:15 SW 5 7.00 Overcast BKN006 BKN012 OVC022 73 73 100% 29.84 0.0
09 10:55 SW 5 5.00 Fog/Mist BKN006 OVC013 72 72 100% 29.84 0.0
09 10:35 S 5 4.00 Fog/Mist BKN005 OVC010 71.8 71.8 100% 29.83 0.0
09 10:15 Vrbl 3 5.00 Fog/Mist OVC004 71.4 71.4 100% 29.83 0.0
09 09:55 Vrbl 3 6.00 Fog/Mist OVC003 71.4 71.4 100% 29.83 0.0
09 09:35 Calm 4.00 Fog/Mist OVC001 71.6 71.6 100% 29.83 0.0
09 09:15 SW 3 3.00 Fog/Mist OVC001 70.7 70.7 100% 29.84 0.0
09 08:55 SW 3 1.50 Fog/Mist OVC002 70.5 70.5 100% 29.83 0.0
09 08:35 Calm 1.00 Fog/Mist VV002 70.3 70.3 100% 29.83 0.0
09 08:15 Calm 1.25 Fog/Mist OVC002 70.2 70.2 100% 29.83 0.0
09 07:55 Calm 1.50 Fog/Mist OVC002 70 70 100% 29.82 0.0
09 07:35 Calm 1.25 Fog/Mist OVC002 69.8 69.8 100% 29.82 0.0
09 07:15 S 9 0.50 Fog VV002 69.3 69.3 100% 29.81 0.0
09 06:55 S 3 0.50 Fog VV002 69.1 69.1 69.3 68.2 100% 29.81 0.0
09 06:35 S 3 0.50 Fog VV002 69.1 69.1 100% 29.8 0.0
09 06:15 S 5 1.00 Fog/Mist VV002 68.9 68.9 100% 29.8 0.0
09 05:55 S 6 1.50 Fog/Mist OVC002 68.9 68.9 100% 29.8 0.0
09 05:35 S 5 1.50 Fog/Mist OVC002 68.9 68.9 100% 29.8 0.0
09 05:15 Vrbl 3 3.00 Fog/Mist OVC002 68.9 68.9 100% 29.8 0.0
09 04:55 S 5 3.00 Fog/Mist OVC002 68.9 68.9 100% 29.8 0.0
09 04:35 S 6 3.00 Fog/Mist OVC002 68.9 68.9 100% 29.81 0.0
09 04:15 SW 3 5.00 Fog/Mist OVC002 69.1 69.1 100% 29.8 0.0
09 03:55 S 3 6.00 Fog/Mist OVC001 69.1 69.1 100% 29.8 0.0
09 03:35 Calm 3.00 Fog/Mist OVC002 68.9 68.9 100% 29.82 0.0
09 03:15 NW 5 3.00 Fog/Mist OVC001 69.1 69.1 100% 29.83 0.0
09 02:55 S 8 6.00 Fog/Mist OVC002 68.7 68.7 100% 29.81 0.0
09 02:35 Calm 7.00 Overcast OVC002 68.7 68.7 100% 29.83 0.0
09 02:15 S 7 8.00 Overcast OVC003 68.2 68.2 100% 29.81 0.0
09 01:55 SE 3 9.00 Overcast OVC005 68.2 68.2 100% 29.84 0.0
09 01:35 Calm 7.00 Overcast OVC005 68.2 68.2 100% 29.85 0.0
09 01:15 N 3 6.00 Fog/Mist OVC004 68.4 68.4 100% 29.84 0.0
09 00:55 Calm 8.00 Overcast OVC005 69.4 69.4 73.9 69.3 100% 29.85 0.0
09 00:35 S 3 10.00 Overcast OVC006 69.3 69.3 100% 29.84 0.0
09 00:15 Calm 10.00 Overcast BKN007 OVC012 69.4 69.4 100% 29.84 0.0
08 23:55 Calm 10.00 Overcast OVC007 69.3 69.3 100% 29.83 0.0
08 23:35 SE 6 10.00 Overcast OVC008 69.4 69.4 100% 29.82 0.0
08 23:15 SE 3 10.00 Overcast BKN009 OVC013 69.6 69.3 99% 29.83 0.0
08 22:55 E 3 10.00 Overcast OVC012 69.8 69.3 98% 29.83 0.0
08 22:35 Calm 10.00 Overcast SCT010 OVC016 69.8 69.3 98% 29.83 0.0
08 22:15 Calm 10.00 Overcast OVC018 69.8 69.4 99% 29.82 0.0
08 21:55 Calm 10.00 Partly Cloudy SCT017 69.4 69.1 99% 29.8 0.0
08 21:35 Calm 10.00 Fair CLR 70 69.3 98% 29.8 0.0
08 21:15 S 6 10.00 Fair CLR 70 69.4 98% 29.77 0.0
08 20:55 S 9 10.00 Fair CLR 70.5 69.4 96% 29.76 0.0
08 20:35 S 7 10.00 Fair CLR 70.7 69.6 96% 29.76 0.0
08 20:15 S 9 10.00 A Few Clouds FEW015 71.1 69.6 95% 29.76 0.0
08 19:55 S 6 10.00 Mostly Cloudy BKN017 BKN023 72.3 69.3 90% 29.77 0.0
08 19:35 S 7 10.00 Mostly Cloudy BKN019 72.5 69.1 89% 29.78 0.0
08 19:15 SE 7 10.00 Mostly Cloudy BKN020 72.9 68.9 87% 29.78 0.0
08 18:55 Calm 10.00 A Few Clouds FEW100 74.1 69.4 77 71.2 85% 29.78 0.0
08 18:35 E 5 10.00 Partly Cloudy SCT100 74.3 68.9 83% 29.78 0.0
08 18:15 Vrbl 3 10.00 Mostly Cloudy FEW028 BKN100 74.3 68.4 82% 29.78 0.0
08 17:55 SE 3 10.00 Overcast OVC029 73.8 68 82% 29.8 0.0
08 17:35 E 3 9.00 Overcast OVC030 73.4 68.5 85% 29.8 0.0
08 17:15 Calm 9.00 Unknown Precip OVC031 73.4 67.3 81% 29.81 0.0
08 16:55 Calm 10.00 Overcast OVC032 73.6 67.3 81% 29.81 0.0
08 16:35 S 5 10.00 Overcast OVC031 74.1 67.1 79% 29.81 0.0
08 16:15 S 6 8.00 Overcast BKN030 OVC039 75 67.3 77% 76 29.8 0.0
08 15:55 Vrbl 3 8.00 Mostly Cloudy BKN040 75.6 66.4 73% 77 29.8 0.0
08 15:35 SE 5 7.00 Mostly Cloudy BKN039 BKN370 75.9 66.6 73% 77 29.81 0.0
08 15:15 NE 3 7.00 Mostly Cloudy BKN036 BKN370 74.8 65.3 72% 29.82 0.0
08 14:55 E 3 8.00 Overcast OVC036 73.8 64.9 74% 29.83 0.0
08 14:35 Calm 8.00 Overcast OVC039 73.6 64 72% 29.84 0.0
08 14:15 Calm 7.00 Mostly Cloudy BKN043 BKN055 BKN270 73.4 63.3 71% 29.84 0.0
08 13:55 Vrbl 3 8.00 A Few Clouds FEW270 75.2 64.2 69% 77 29.84 0.0
08 13:35 Vrbl 3 9.00 A Few Clouds FEW060 73.9 63.9 71% 29.85 0.0
08 13:15 E 6 8.00 Mostly Cloudy FEW050 SCT060 SCT270 BKN290 BKN350 73 64.2 74% 29.87 0.0
08 12:55 Vrbl 6 7.00 Mostly Cloudy FEW040 BKN050 70.7 63.3 71.1 58.5 78% 29.88 0.0
08 12:35 SE 6 8.00 Overcast BKN040 OVC055 70.5 63.3 78% 29.89 0.0
08 12:15 E 6 8.00 Mostly Cloudy BKN041 BKN060 68.9 62.2 79% 29.9 0.0
08 11:55 NE 5 9.00 Overcast BKN030 OVC043 68 62.2 82% 29.92 0.0
08 11:35 NE 9 9.00 Overcast OVC030 68.5 62.1 80% 29.92 0.0
08 11:15 E 7 9.00 Overcast OVC030 65.8 60.6 83% 29.93 0.0
08 10:55 Vrbl 6 9.00 Overcast OVC030 65.8 60.3 82% 29.95 0.0
08 10:35 E 7 9.00 Overcast OVC029 65.8 60.6 83% 29.94 0.0
08 10:15 E 8 9.00 Overcast OVC029 65.3 61 86% 29.93 0.0
08 09:55 E 7 9.00 Overcast OVC030 64 61 90% 29.95 0.0
08 09:35 E 6 9.00 Overcast OVC030 63 61 93% 29.95 0.0
08 09:15 E 6 8.00 Overcast OVC029 61.2 60.3 97% 29.96 0.0
08 08:55 N 5 8.00 Mostly Cloudy BKN029 62.2 60.3 93% 29.95 0.0
08 08:35 Calm 8.00 A Few Clouds FEW030 61.2 59.7 95% 29.94 0.0
08 08:15 E 3 9.00 A Few Clouds FEW140 59.2 58.6 98% 29.93 0.0
08 07:55 NE 6 10.00 Mostly Cloudy BKN130 BKN160 58.5 58.5 100% 29.9 0.0
08 07:35 NE 5 10.00 Mostly Cloudy BKN130 58.8 58.5 99% 29.91 0.0
08 07:15 Calm 10.00 Mostly Cloudy BKN130 59.2 58.1 96% 29.93 0.0
08 06:55 E 3 5.00 Fog/Mist SCT130 58.6 57.6 61 58.6 96% 29.93 0.0
08 06:35 E 3 8.00 Mostly Cloudy FEW041 BKN130 BKN150 58.8 57.6 96% 29.93 0.0
08 06:15 NE 3 10.00 Mostly Cloudy FEW042 BKN120 59.2 57.4 94% 29.94 0.0
08 05:55 E 6 9.00 Mostly Cloudy BKN110 BKN140 59.2 57.6 94% 29.95 0.0
08 05:35 Calm 9.00 Partly Cloudy SCT110 58.8 57.4 95% 29.95 0.0
08 05:15 E 3 10.00 A Few Clouds FEW110 58.8 57.4 95% 29.94 0.0
08 04:55 NE 5 10.00 Mostly Cloudy SCT110 BKN150 59.2 57.6 94% 29.94 0.0
08 04:35 E 3 9.00 Partly Cloudy SCT120 SCT150 59.2 57.7 95% 29.94 0.0
08 04:15 NE 3 9.00 Mostly Cloudy BKN110 59.5 57.9 94% 29.94 0.0
08 03:55 Calm 9.00 Mostly Cloudy BKN110 59.2 57.9 96% 29.94 0.0
08 03:35 Calm 9.00 Mostly Cloudy BKN110 59.5 57.7 94% 29.94 0.0
08 03:15 E 3 10.00 Overcast OVC110 60.1 57.4 91% 29.93 0.0
08 02:55 NE 5 10.00 Overcast BKN110 OVC260 60.3 57.6 91% 29.94 0.0
08 02:35 NE 5 10.00 Overcast BKN110 OVC260 60.4 57.6 90% 29.95 0.0
08 02:15 E 3 10.00 Overcast BKN100 OVC250 60.8 57.2 88% 29.95 0.0
08 01:55 E 5 10.00 Mostly Cloudy BKN110 BKN250 BKN280 60.8 56.8 87% 29.96 0.0
08 01:35 E 3 10.00 Partly Cloudy FEW110 SCT280 60.4 56.8 88% 29.96 0.0
08 01:15 Calm 10.00 A Few Clouds FEW130 60.3 57 89% 29.96 0.0
08 00:55 NE 3 9.00 A Few Clouds FEW130 58.8 58.5 63.5 58.6 99% 29.96 0.0
08 00:35 NE 3 10.00 Mostly Cloudy BKN130 59.4 58.6 97% 29.96 0.0
08 00:15 Calm 10.00 A Few Clouds FEW130 59.9 58.3 94% 29.96 0.0
07 23:55 N 5 10.00 Mostly Cloudy BKN130 59.9 58.5 95% 29.96 0.0
07 23:35 Calm 10.00 Overcast OVC130 60.6 58.5 93% 29.96 0.0
07 23:15 NE 3 10.00 Mostly Cloudy BKN140 59.4 59 99% 29.95 0.0
07 22:55 N 7 9.00 Partly Cloudy SCT140 60.8 57.6 89% 29.96 0.0
07 22:35 NE 3 10.00 Fair CLR 61.2 57.2 87% 29.97 0.0
07 22:15 SE 5 10.00 A Few Clouds FEW200 60.6 57.7 90% 29.96 0.0
07 21:55 Calm 10.00 Partly Cloudy FEW180 SCT210 60.8 57.7 90% 29.96 0.0
07 21:35 Calm 10.00 Mostly Cloudy BKN200 61 57.2 87% 29.96 0.0
07 21:15 E 5 10.00 Mostly Cloudy FEW150 BKN200 61.2 57.2 87% 29.94 0.0
07 20:55 Calm 10.00 Mostly Cloudy BKN120 BKN140 61.5 58.6 90% 29.97 0.0
07 20:35 Calm 10.00 Mostly Cloudy BKN110 60.8 58.8 93% 29.95 0.0
07 20:15 Calm 8.00 A Few Clouds FEW150 61.5 58.8 91% 29.96 0.0
07 19:55 Calm 8.00 A Few Clouds FEW150 61.7 59 91% 29.96 0.0
07 19:35 SW 6 9.00 Partly Cloudy SCT150 62.6 58.3 86% 29.99 0.0
07 19:15 Calm 8.00 Mostly Cloudy BKN150 63 57.9 84% 29.96 0.0
07 18:55 N 5 8.00 Partly Cloudy FEW110 SCT140 63.3 57.2 67.1 63.3 81% 29.95 0.0
07 18:35 E 6 8.00 A Few Clouds FEW110 63.7 57 79% 29.94 0.0
07 18:15 Calm 8.00 A Few Clouds FEW210 64.2 56.8 77% 29.97 0.0
07 17:55 Calm 8.00 Mostly Cloudy BKN210 65.1 55.9 72% 29.97 0.0
07 17:35 NE 6 8.00 Mostly Cloudy BKN210 65.1 55.9 72% 29.96 0.0
07 17:15 E 6 9.00 Partly Cloudy FEW210 SCT340 SCT370 65.1 55.9 72% 29.96 0.0
07 16:55 NE 3 8.00 Partly Cloudy SCT210 65.1 54.9 70% 29.98 0.0
07 16:35 Vrbl 5 9.00 Partly Cloudy SCT210 65.1 55.8 72% 29.98 0.0
07 16:15 NE 5 9.00 A Few Clouds FEW190 65.3 55.6 71% 29.97 0.0
07 15:15 E 5 9.00 A Few Clouds FEW190 65.3 54.7 69% 29.99 0.0
07 14:55 N 5 9.00 Partly Cloudy FEW200 SCT220 65.8 54.3 67% 30 0.0
07 14:35 Vrbl 6 9.00 Partly Cloudy SCT210 SCT340 66.6 54.9 66% 30.01 0.0
07 14:15 N 9 9.00 Mostly Cloudy FEW200 SCT250 SCT300 BKN340 65.7 54 66% 30 0.0
07 13:55 NE 8 9.00 Mostly Cloudy FEW210 SCT300 SCT330 BKN370 65.8 54.3 67% 30 0.0
07 13:35 N 9 9.00 Partly Cloudy FEW210 SCT250 SCT320 SCT350 65.8 54.3 67% 30.01 0.0
07 13:15 N 9 9.00 Partly Cloudy FEW220 SCT340 66.4 53.8 64% 30.02 0.0
07 12:55 NE 10 8.00 Partly Cloudy FEW230 SCT340 SCT370 65.7 53.2 65.8 52.2 64% 30.03 0.0
07 12:35 N 10 8.00 Partly Cloudy FEW240 SCT310 SCT340 65.1 52.9 65% 30.03 0.0
07 12:15 N 10 9.00 A Few Clouds FEW240 65.7 53.2 64% 30.03 0.0
07 11:55 NE 13 9.00 Partly Cloudy SCT240 63.9 52.3 66% 30.02 0.0
07 11:35 NE 13 8.00 Mostly Cloudy SCT240 SCT290 BKN370 64.9 52.9 65% 30.04 0.0
07 11:15 NE 14 9.00 A Few Clouds FEW230 64 52.7 67% 30.03 0.0
07 10:55 NE 9 9.00 Partly Cloudy FEW200 SCT230 61.2 52 72% 30.05 0.0
07 10:35 NE 10 10.00 Partly Cloudy FEW180 SCT360 59 51.3 76% 30.05 0.0
07 10:15 NE 10 10.00 Partly Cloudy FEW170 SCT370 57.6 50.9 79% 30.05 0.0
07 09:55 NE 9 10.00 Mostly Cloudy SCT170 SCT210 BKN380 56.8 51.8 83% 30.06 0.0
07 09:35 N 7 10.00 Partly Cloudy SCT170 55.9 51.4 85% 30.06 0.0
07 09:15 N 8 10.00 Partly Cloudy SCT170 SCT220 54.9 51.3 88% 30.05 0.0
07 08:55 NE 10 10.00 Partly Cloudy SCT170 54.5 50.9 88% 30.07 0.0
07 08:35 N 7 10.00 Fair CLR 54 51.1 90% 30.07 0.0
07 08:15 N 6 9.00 A Few Clouds FEW350 53.4 50.7 91% 30.06 0.0
07 07:55 N 10 9.00 Partly Cloudy SCT210 52.7 50.4 92% 30.05 0.0
07 07:35 N 8 9.00 Mostly Cloudy BKN200 52.3 50.4 93% 30.04 0.0
07 07:15 N 8 9.00 Partly Cloudy SCT200 52.3 50.4 93% 30.04 0.0
07 06:55 N 7 9.00 Fair CLR 52 50.4 54.7 52 94% 30.04 0.0
07 06:35 N 7 10.00 Fair CLR 52.2 50.4 94% 30.03 0.0
07 06:15 N 6 10.00 Fair CLR 52.3 50.4 93% 30.01 0.0
07 05:55 Vrbl 5 10.00 A Few Clouds FEW022 52.7 50.5 92% 30.01 0.0
07 05:35 NE 7 10.00 A Few Clouds FEW021 53.1 50.5 91% 29.99 0.0
07 05:15 NE 7 10.00 Mostly Cloudy BKN020 53.4 50.2 89% 29.97 0.0
07 04:55 NE 9 10.00 Overcast OVC021 53.6 50.7 90% 29.95 0.0
07 04:35 NE 12 10.00 Overcast OVC022 53.6 50.9 91% 29.96 0.0
07 04:15 NE 13 10.00 Overcast OVC021 53.6 51.1 91% 29.96 0.0
07 03:55 NE 8 10.00 Partly Cloudy SCT022 53.4 51.8 94% 29.96 0.0
07 03:35 NE 12 10.00 A Few Clouds FEW022 53.8 52 94% 29.96 0.0
07 03:15 NE 9 10.00 Partly Cloudy FEW010 SCT023 53.8 52.9 97% 29.96 0.0
07 02:55 NE 9 10.00 Overcast OVC008 54 53.4 98% 29.96 0.0
07 02:35 NE 12 10.00 Overcast OVC007 54 53.8 99% 29.97 0.0
07 02:15 NE 9 G 18 10.00 Overcast OVC007 54.1 53.8 99% 29.97 0.0
07 01:55 NE 10 10.00 Overcast OVC007 54.3 54 99% 29.99 0.0
07 01:35 NE 9 10.00 Overcast OVC007 54.5 54.3 99% 29.98 0.0
07 01:15 N 9 10.00 Overcast OVC007 54.5 54.1 99% 29.98 0.0
07 00:55 N 12 G 18 10.00 Overcast OVC006 54.7 54.3 60.6 54.7 99% 29.99 0.0
07 00:35 NE 10 10.00 Overcast OVC006 54.9 54.9 100% 29.99 0.0
07 00:15 N 13 G 18 10.00 Overcast OVC004 55 55 100% 29.98 0.0
06 23:55 NE 9 G 20 10.00 Overcast OVC004 55.8 55.8 100% 29.98 0.0
06 23:35 NE 7 10.00 Overcast OVC004 56.1 56.1 100% 29.98 0.0
06 23:15 N 10 10.00 Overcast OVC004 57.4 57.4 100% 29.97 0.0
06 22:55 NE 12 10.00 Overcast OVC005 57.7 57.7 100% 29.96 0.0
06 22:35 NE 9 10.00 Overcast BKN003 OVC010 57.7 57.7 100% 29.96 0.0
06 22:15 N 12 6.00 Fog/Mist OVC003 58.8 58.8 100% 29.95 0.0
06 21:55 NE 9 9.00 Overcast OVC004 58.8 58.8 100% 29.93 0.0
06 21:35 NE 7 10.00 Overcast OVC003 59.4 59.4 100% 29.93 0.0
06 21:15 NE 13 G 17 10.00 Overcast OVC003 59.7 59.7 100% 29.9 0.0
06 20:55 NE 9 9.00 Overcast OVC003 59.9 59.9 100% 29.9 0.0
06 20:35 N 8 10.00 Overcast OVC004 60.1 60.1 100% 29.89 0.0
06 20:15 N 7 10.00 Overcast OVC004 60.3 60.3 100% 29.88 0.0
06 19:55 N 8 10.00 Overcast OVC005 60.3 60.3 100% 29.87 0.0
06 19:35 N 9 G 17 10.00 Overcast OVC005 60.4 60.4 100% 29.87 0.0
06 19:15 N 10 10.00 Overcast OVC005 60.6 60.6 100% 29.87 0.0
Date Time (cdt) Wind (mph) Vis. (mi.) Weather Sky Cond. Air Dwpt Max. Min. Relative Humidity Wind Chill (°F) Heat Index (°F) altimeter (in) sea level (mb) 1 hr 3 hr 6 hr
6 hour
Temperature (ºF) Pressure Precipitation (in)